Time;durP1;ratioP1;P1;durP2;ratioP2;P2;SDS_P1;SDS_P2;PMS_P1;PMS_P2;Temp;Humidity;BMP_temperature;BMP_pressure;BME280_temperature;BME280_humidity;BME280_pressure;Samples;Min_cycle;Max_cycle;Signal;HPM_P1;HPM_P2
2022/03/05 00:01:04;;;;;;;17.88;6.78;;;3.20;67.00;;;;;;6252742;28;20045;-81
2022/03/05 00:04:06;;;;;;;9.73;5.65;;;3.30;67.00;;;;;;6268288;28;20077;-83
2022/03/05 00:07:08;;;;;;;18.50;9.38;;;3.30;67.20;;;;;;6256491;28;20129;-83
2022/03/05 00:10:10;;;;;;;20.83;7.93;;;3.30;67.10;;;;;;6259025;28;20057;-83
2022/03/05 00:13:12;;;;;;;18.55;7.32;;;3.30;67.10;;;;;;6258008;28;20141;-83
2022/03/05 00:16:15;;;;;;;14.18;6.20;;;3.30;66.90;;;;;;6256784;28;20042;-83
2022/03/05 00:19:17;;;;;;;27.83;7.45;;;3.40;66.80;;;;;;6257680;28;20128;-82
2022/03/05 00:22:19;;;;;;;13.70;7.13;;;3.40;66.90;;;;;;6257334;28;20151;-82
2022/03/05 00:25:21;;;;;;;21.90;6.72;;;3.40;67.00;;;;;;6257811;28;20133;-82
2022/03/05 00:28:23;;;;;;;21.33;7.65;;;3.30;67.00;;;;;;6258291;28;20073;-83
2022/03/05 00:31:26;;;;;;;25.40;7.72;;;3.30;66.90;;;;;;6259182;28;20462;-81
2022/03/05 00:34:29;;;;;;;22.33;8.13;;;3.30;66.50;;;;;;6258311;28;20113;-83
2022/03/05 00:37:30;;;;;;;21.95;8.45;;;3.30;66.30;;;;;;6259139;28;20045;-83
2022/03/05 00:40:33;;;;;;;18.27;6.40;;;3.30;66.40;;;;;;6258523;28;20042;-83
2022/03/05 00:43:34;;;;;;;21.00;7.95;;;3.30;66.30;;;;;;6259200;28;20418;-83
2022/03/05 00:46:38;;;;;;;17.02;7.25;;;3.20;66.50;;;;;;6258548;28;20128;-83
2022/03/05 00:49:39;;;;;;;22.58;7.43;;;3.20;66.40;;;;;;6259400;28;20133;-83
2022/03/05 00:52:41;;;;;;;19.08;8.70;;;3.10;66.20;;;;;;6260347;28;20165;-83
2022/03/05 00:55:43;;;;;;;20.83;8.93;;;3.00;66.30;;;;;;6256959;28;20124;-83
2022/03/05 00:58:45;;;;;;;19.48;8.52;;;3.00;66.50;;;;;;6258424;28;20045;-80
2022/03/05 01:01:48;;;;;;;23.15;8.65;;;2.90;66.50;;;;;;6259408;28;20073;-83
2022/03/05 01:04:50;;;;;;;20.52;8.27;;;2.80;66.60;;;;;;6258046;28;20053;-83
2022/03/05 01:07:51;;;;;;;16.00;7.15;;;2.70;66.70;;;;;;6258874;28;20156;-83
2022/03/05 01:10:53;;;;;;;17.02;8.10;;;2.60;67.20;;;;;;6257211;28;20128;-83
2022/03/05 01:13:55;;;;;;;19.80;8.32;;;2.50;67.50;;;;;;6257903;28;20049;-83
2022/03/05 01:16:58;;;;;;;17.77;7.70;;;2.40;67.70;;;;;;6258699;28;20095;-83
2022/03/05 01:20:00;;;;;;;16.70;8.02;;;2.30;68.00;;;;;;6258395;28;20069;-83
2022/03/05 01:23:03;;;;;;;18.75;8.55;;;2.30;68.70;;;;;;6258250;28;20055;-83
2022/03/05 01:26:05;;;;;;;19.65;7.45;;;2.20;68.40;;;;;;6234434;28;20124;-83
2022/03/05 01:29:06;;;;;;;20.20;7.65;;;2.10;68.60;;;;;;6233482;28;20415;-83
2022/03/05 01:32:10;;;;;;;16.80;7.35;;;2.00;68.70;;;;;;6233105;28;20049;-82
2022/03/05 01:35:12;;;;;;;18.83;6.72;;;1.90;69.10;;;;;;6234885;28;20048;-82
2022/03/05 01:38:13;;;;;;;18.85;7.20;;;1.90;69.40;;;;;;6234753;28;20351;-81
2022/03/05 01:41:15;;;;;;;19.65;8.00;;;1.80;69.40;;;;;;6234781;28;20431;-83
2022/03/05 01:44:19;;;;;;;15.30;7.85;;;1.70;69.70;;;;;;6235643;28;20139;-83
2022/03/05 01:47:22;;;;;;;23.85;8.88;;;1.70;70.50;;;;;;6236983;28;20519;-83
2022/03/05 01:50:24;;;;;;;18.67;8.00;;;1.60;70.00;;;;;;6233681;28;20555;-82
2022/03/05 01:53:26;;;;;;;23.98;7.55;;;1.50;69.90;;;;;;6233643;28;20050;-81
2022/03/05 01:56:29;;;;;;;19.15;7.28;;;1.40;70.20;;;;;;6232045;28;20101;-83
2022/03/05 01:59:31;;;;;;;13.98;6.28;;;1.40;70.80;;;;;;6232312;28;20060;-83
2022/03/05 02:02:34;;;;;;;20.15;7.95;;;1.30;70.90;;;;;;6232810;28;20054;-83
2022/03/05 02:05:36;;;;;;;18.70;7.03;;;1.20;71.00;;;;;;6232640;28;20046;-83
2022/03/05 02:08:38;;;;;;;18.40;8.65;;;1.20;71.90;;;;;;6235362;28;20050;-82
2022/03/05 02:11:41;;;;;;;19.75;7.38;;;1.10;72.20;;;;;;6237836;28;20057;-80
2022/03/05 02:14:43;;;;;;;23.02;8.90;;;1.10;72.20;;;;;;6233072;28;20415;-80
2022/03/05 02:17:46;;;;;;;15.52;7.22;;;1.00;72.40;;;;;;6236043;28;20053;-80
2022/03/05 02:20:49;;;;;;;16.27;7.63;;;0.90;72.30;;;;;;6239526;28;20042;-79
2022/03/05 02:23:52;;;;;;;18.05;8.70;;;0.90;72.70;;;;;;6235888;28;20058;-80
2022/03/05 02:26:53;;;;;;;18.45;8.02;;;0.80;72.90;;;;;;6239861;28;20088;-79
2022/03/05 02:29:56;;;;;;;22.60;8.32;;;0.80;73.10;;;;;;6233255;28;20046;-80
2022/03/05 02:32:58;;;;;;;18.85;7.93;;;0.70;73.60;;;;;;6231616;28;20054;-80
2022/03/05 02:36:02;;;;;;;15.50;7.22;;;0.70;74.00;;;;;;6230565;28;20102;-79
2022/03/05 02:39:04;;;;;;;18.48;7.28;;;0.60;74.10;;;;;;6231176;28;20053;-80
2022/03/05 02:42:06;;;;;;;21.70;8.02;;;0.60;74.60;;;;;;6231606;28;20109;-80
2022/03/05 02:45:08;;;;;;;20.48;7.90;;;0.60;74.90;;;;;;6231159;28;20053;-79
2022/03/05 02:48:15;;;;;;;13.77;6.20;;;0.60;75.00;;;;;;6231909;28;20507;-79
2022/03/05 02:51:20;;;;;;;25.17;7.70;;;0.60;75.20;;;;;;6231350;28;20056;-79
2022/03/05 02:54:23;;;;;;;17.27;6.78;;;0.60;75.20;;;;;;6230461;28;20487;-80
2022/03/05 02:57:24;;;;;;;17.75;7.47;;;0.60;75.30;;;;;;6230577;28;20049;-80
2022/03/05 03:00:26;;;;;;;21.30;8.93;;;0.50;75.30;;;;;;6230676;28;20100;-79
2022/03/05 03:03:28;;;;;;;16.60;7.70;;;0.50;75.40;;;;;;6229862;28;20050;-81
2022/03/05 03:06:31;;;;;;;23.60;7.80;;;0.50;75.60;;;;;;6230655;28;20109;-80
2022/03/05 03:09:33;;;;;;;18.38;7.75;;;0.50;75.70;;;;;;6231181;28;20046;-79
2022/03/05 03:12:35;;;;;;;17.33;7.50;;;0.50;75.90;;;;;;6232462;28;20057;-78
2022/03/05 03:15:37;;;;;;;17.13;7.47;;;0.50;76.00;;;;;;6237230;28;20419;-78
2022/03/05 03:18:38;;;;;;;19.30;7.38;;;0.50;75.90;;;;;;6236648;28;20057;-79
2022/03/05 03:21:42;;;;;;;16.10;6.78;;;0.40;76.30;;;;;;6237020;28;20042;-79
2022/03/05 03:24:44;;;;;;;12.70;6.55;;;0.50;76.20;;;;;;6233752;28;20056;-80
2022/03/05 03:27:46;;;;;;;22.00;7.40;;;0.40;75.90;;;;;;6231821;28;20663;-79
2022/03/05 03:30:47;;;;;;;18.85;7.22;;;0.40;76.40;;;;;;6229940;28;20045;-79
2022/03/05 03:33:49;;;;;;;18.33;8.55;;;0.50;75.90;;;;;;6232112;28;20050;-79
2022/03/05 03:36:52;;;;;;;15.40;7.30;;;0.40;76.10;;;;;;6231869;28;20069;-79
2022/03/05 03:39:54;;;;;;;19.05;6.85;;;0.40;76.10;;;;;;6229033;28;20050;-79
2022/03/05 03:42:56;;;;;;;17.52;7.70;;;0.40;76.30;;;;;;6229338;28;20056;-79
2022/03/05 03:45:58;;;;;;;11.68;6.25;;;0.40;76.30;;;;;;6229235;28;20140;-79
2022/03/05 03:48:59;;;;;;;18.25;6.90;;;0.40;76.40;;;;;;6230056;28;20129;-79
2022/03/05 03:52:03;;;;;;;15.77;7.50;;;0.40;76.80;;;;;;6232300;28;20115;-79
2022/03/05 03:55:07;;;;;;;16.38;7.00;;;0.40;76.60;;;;;;6235387;28;20057;-79
2022/03/05 03:58:09;;;;;;;17.60;7.03;;;0.40;76.70;;;;;;6238286;28;20056;-79
2022/03/05 04:01:10;;;;;;;18.30;7.95;;;0.40;76.70;;;;;;6234252;28;20092;-80
2022/03/05 04:04:12;;;;;;;18.95;8.15;;;0.40;76.80;;;;;;6233364;28;20136;-80
2022/03/05 04:10:37;;;;;;;15.57;6.40;;;0.40;77.20;;;;;;6230705;28;20049;-80
2022/03/05 04:13:39;;;;;;;12.88;6.55;;;0.40;77.40;;;;;;6231623;28;20060;-80
2022/03/05 04:16:41;;;;;;;20.25;7.75;;;0.40;77.30;;;;;;6232460;28;20050;-79
2022/03/05 04:19:43;;;;;;;15.57;7.00;;;0.50;77.40;;;;;;6234342;28;20133;-80
2022/03/05 04:22:47;;;;;;;18.65;8.10;;;0.60;77.40;;;;;;6234836;28;20069;-80
2022/03/05 04:25:48;;;;;;;17.77;8.15;;;0.60;77.20;;;;;;6235437;28;20060;-79
2022/03/05 04:28:50;;;;;;;17.40;6.72;;;0.60;77.80;;;;;;6234261;28;20172;-80
2022/03/05 04:31:52;;;;;;;19.42;7.63;;;0.70;76.90;;;;;;6228839;28;20113;-79
2022/03/05 04:34:54;;;;;;;15.27;7.78;;;0.70;76.90;;;;;;6226686;28;20052;-80
2022/03/05 04:37:57;;;;;;;21.40;7.78;;;0.70;76.70;;;;;;6228826;28;20136;-79
2022/03/05 04:40:59;;;;;;;22.83;8.45;;;0.70;76.60;;;;;;6227639;28;20070;-80
2022/03/05 04:44:00;;;;;;;19.10;8.82;;;0.80;76.50;;;;;;6227722;28;20563;-78
2022/03/05 04:47:02;;;;;;;22.00;7.32;;;0.80;76.40;;;;;;6228390;28;20074;-79
2022/03/05 04:50:06;;;;;;;18.42;8.05;;;0.80;76.20;;;;;;6227075;28;20533;-79
2022/03/05 04:53:09;;;;;;;17.30;7.03;;;0.80;75.90;;;;;;6226435;28;20056;-80
2022/03/05 04:56:10;;;;;;;17.92;7.70;;;0.80;75.70;;;;;;6227405;28;20057;-80
2022/03/05 04:59:12;;;;;;;16.80;7.82;;;0.80;75.80;;;;;;6227025;28;20057;-80
2022/03/05 05:02:14;;;;;;;15.82;6.88;;;0.70;75.90;;;;;;6227294;28;20160;-79
2022/03/05 05:05:16;;;;;;;13.30;6.38;;;0.70;75.90;;;;;;6226997;28;20127;-80
2022/03/05 05:08:20;;;;;;;13.25;6.80;;;0.70;75.90;;;;;;6226242;28;20049;-80
2022/03/05 05:11:21;;;;;;;17.92;7.13;;;0.70;76.00;;;;;;6226653;28;20050;-80
2022/03/05 05:14:23;;;;;;;20.77;7.45;;;0.70;76.60;;;;;;6227088;28;20054;-81
2022/03/05 05:17:25;;;;;;;16.92;6.45;;;0.60;76.40;;;;;;6227523;28;20045;-80
2022/03/05 05:20:29;;;;;;;18.15;8.57;;;0.60;76.30;;;;;;6227356;28;20222;-80
2022/03/05 05:23:32;;;;;;;16.30;6.90;;;0.60;76.30;;;;;;6226541;28;20419;-80
2022/03/05 05:26:34;;;;;;;17.42;7.38;;;0.60;76.30;;;;;;6226161;28;20042;-80
2022/03/05 05:29:36;;;;;;;18.27;6.65;;;0.50;76.30;;;;;;6233418;28;20050;-79
2022/03/05 05:32:38;;;;;;;18.95;7.30;;;0.50;76.50;;;;;;6228706;28;20077;-80
2022/03/05 05:35:39;;;;;;;17.08;6.18;;;0.50;76.60;;;;;;6228364;28;20042;-80
2022/03/05 05:38:42;;;;;;;17.00;7.20;;;0.40;76.60;;;;;;6234466;28;20065;-80
2022/03/05 05:41:44;;;;;;;12.90;6.75;;;0.40;76.50;;;;;;6244321;28;20492;-80
2022/03/05 05:44:46;;;;;;;18.77;6.78;;;0.40;76.50;;;;;;6245358;28;20076;-80
2022/03/05 05:47:48;;;;;;;14.30;7.72;;;0.40;76.60;;;;;;6246849;28;20053;-79
2022/03/05 05:50:50;;;;;;;16.70;6.43;;;0.40;77.10;;;;;;6245571;28;20444;-79
2022/03/05 05:53:53;;;;;;;17.40;6.53;;;0.40;77.00;;;;;;6242250;28;20050;-79
2022/03/05 05:56:54;;;;;;;12.15;6.55;;;0.40;76.70;;;;;;6241996;28;20062;-80
2022/03/05 05:59:56;;;;;;;14.27;7.82;;;0.40;76.50;;;;;;6241312;28;20056;-80
2022/03/05 06:02:58;;;;;;;15.45;7.13;;;0.40;76.50;;;;;;6243379;28;20081;-81
2022/03/05 06:06:00;;;;;;;12.35;6.38;;;0.40;76.60;;;;;;6241844;28;20080;-79
2022/03/05 06:09:04;;;;;;;13.63;6.25;;;0.40;76.50;;;;;;6240270;28;20128;-81
2022/03/05 06:12:06;;;;;;;15.13;5.93;;;0.40;76.30;;;;;;6241189;28;20049;-80
2022/03/05 06:15:10;;;;;;;17.27;7.22;;;0.40;76.40;;;;;;6237707;28;20516;-80
2022/03/05 06:18:12;;;;;;;11.77;6.72;;;0.40;76.70;;;;;;6238963;28;20042;-80
2022/03/05 06:21:14;;;;;;;25.90;10.48;;;0.40;76.60;;;;;;6237918;28;20060;-81
2022/03/05 06:24:17;;;;;;;16.55;9.43;;;0.40;76.60;;;;;;6237738;28;20137;-80
2022/03/05 06:27:19;;;;;;;15.13;7.00;;;0.50;77.10;;;;;;6237673;28;20154;-80
2022/03/05 06:30:21;;;;;;;19.75;9.18;;;0.50;77.30;;;;;;6233540;28;20049;-80
2022/03/05 06:33:23;;;;;;;17.70;6.40;;;0.60;77.90;;;;;;6232410;28;20054;-80
2022/03/05 06:36:24;;;;;;;13.98;5.53;;;0.60;77.50;;;;;;6230758;28;20081;-79
2022/03/05 06:39:27;;;;;;;20.73;6.63;;;0.80;77.60;;;;;;6231167;28;20427;-80
2022/03/05 06:42:29;;;;;;;16.13;7.28;;;0.90;77.60;;;;;;6231925;28;20054;-79
2022/03/05 06:45:31;;;;;;;17.02;8.20;;;1.00;78.20;;;;;;6231417;28;20056;-81
2022/03/05 06:48:33;;;;;;;17.45;6.95;;;1.20;77.50;;;;;;6232348;28;20124;-80
2022/03/05 06:51:35;;;;;;;14.68;6.28;;;1.30;77.00;;;;;;6232158;28;20476;-80
2022/03/05 06:54:38;;;;;;;17.98;7.18;;;1.40;76.90;;;;;;6231601;28;20046;-80
2022/03/05 06:57:40;;;;;;;20.15;8.32;;;1.50;76.10;;;;;;6231519;28;20070;-80
2022/03/05 07:00:42;;;;;;;14.82;7.35;;;1.60;75.70;;;;;;6231473;28;20512;-80
2022/03/05 07:03:44;;;;;;;14.55;6.55;;;1.80;75.50;;;;;;6231154;28;20050;-80
2022/03/05 07:06:46;;;;;;;18.60;7.25;;;2.10;74.40;;;;;;6231366;28;20037;-81
2022/03/05 07:09:49;;;;;;;12.45;5.72;;;2.30;73.40;;;;;;6233531;28;20050;-80
2022/03/05 07:12:51;;;;;;;13.45;6.13;;;2.40;72.30;;;;;;6235134;28;20159;-81
2022/03/05 07:15:52;;;;;;;13.32;6.13;;;2.60;71.60;;;;;;6232357;28;20050;-81
2022/03/05 07:18:54;;;;;;;15.82;6.55;;;2.90;70.60;;;;;;6233898;28;20046;-81
2022/03/05 07:21:56;;;;;;;14.52;5.25;;;3.10;70.10;;;;;;6233412;28;20046;-81
2022/03/05 07:24:59;;;;;;;13.90;6.28;;;3.30;69.10;;;;;;6231998;28;20074;-80
2022/03/05 07:28:01;;;;;;;34.63;11.90;;;3.60;68.10;;;;;;6233453;28;20038;-81
2022/03/05 07:31:03;;;;;;;32.42;14.13;;;3.90;66.40;;;;;;6233944;28;20085;-81
2022/03/05 07:34:05;;;;;;;13.98;6.47;;;4.20;66.10;;;;;;6235193;28;20405;-81
2022/03/05 07:37:09;;;;;;;31.25;15.40;;;4.50;64.60;;;;;;6234635;28;20071;-81
2022/03/05 07:40:15;;;;;;;108.20;64.43;;;4.80;63.70;;;;;;6231062;28;20390;-80
2022/03/05 07:43:17;;;;;;;16.08;7.70;;;5.20;64.30;;;;;;6230318;28;20421;-79
2022/03/05 07:46:19;;;;;;;18.58;10.50;;;5.60;61.50;;;;;;6230370;28;20052;-80
2022/03/05 07:49:21;;;;;;;16.05;7.03;;;6.00;60.70;;;;;;6230148;28;20429;-79
2022/03/05 07:52:23;;;;;;;13.18;6.72;;;6.50;58.90;;;;;;6229341;28;20049;-79
2022/03/05 07:55:26;;;;;;;13.43;6.88;;;6.90;57.10;;;;;;6228951;28;20054;-80
2022/03/05 07:58:28;;;;;;;14.88;5.85;;;7.20;57.00;;;;;;6230019;28;20073;-80
2022/03/05 08:01:30;;;;;;;15.38;6.97;;;7.70;54.20;;;;;;6230330;28;20046;-80
2022/03/05 08:04:31;;;;;;;13.15;6.07;;;8.00;53.00;;;;;;6229094;28;20064;-81
2022/03/05 08:07:33;;;;;;;11.70;5.50;;;8.30;50.10;;;;;;6229424;28;20048;-81
2022/03/05 08:10:36;;;;;;;12.95;6.10;;;8.60;49.60;;;;;;6230416;28;20407;-81
2022/03/05 08:13:38;;;;;;;16.20;6.40;;;9.00;48.30;;;;;;6235971;28;20056;-83
2022/03/05 08:16:40;;;;;;;12.90;6.03;;;9.80;46.20;;;;;;6235929;28;20045;-83
2022/03/05 08:19:42;;;;;;;15.20;6.68;;;10.50;44.50;;;;;;6234738;28;20049;-83
2022/03/05 08:22:43;;;;;;;14.10;6.68;;;11.20;42.40;;;;;;6242891;28;20515;-83
2022/03/05 08:25:47;;;;;;;17.00;7.38;;;11.30;41.20;;;;;;6236671;28;20109;-83
2022/03/05 08:28:48;;;;;;;14.32;6.47;;;10.90;41.10;;;;;;6233153;28;20045;-83
2022/03/05 08:31:50;;;;;;;19.05;6.97;;;10.30;42.40;;;;;;6235044;28;20120;-83
2022/03/05 08:34:52;;;;;;;19.30;7.65;;;10.30;43.20;;;;;;6245025;28;20058;-83
2022/03/05 08:37:54;;;;;;;17.75;7.60;;;10.70;42.60;;;;;;6232010;28;20046;-83
2022/03/05 08:40:58;;;;;;;14.48;8.10;;;11.70;42.00;;;;;;6231794;28;20053;-81
2022/03/05 08:44:00;;;;;;;14.43;6.78;;;13.20;38.90;;;;;;6231623;28;20046;-83
2022/03/05 08:47:01;;;;;;;14.35;6.13;;;14.10;36.00;;;;;;6230345;28;20418;-83
2022/03/05 08:50:06;;;;;;;18.92;6.88;;;14.50;35.50;;;;;;6230577;28;20488;-83
2022/03/05 08:53:08;;;;;;;13.68;7.45;;;14.80;34.00;;;;;;6229793;28;20046;-83
2022/03/05 08:56:11;;;;;;;17.55;9.48;;;15.10;33.70;;;;;;6230056;28;20459;-83
2022/03/05 08:59:14;;;;;;;16.98;8.73;;;15.10;34.00;;;;;;6230593;28;20052;-83
2022/03/05 09:02:16;;;;;;;18.85;9.25;;;15.80;32.30;;;;;;6204028;28;20101;-84
2022/03/05 09:05:18;;;;;;;20.80;10.48;;;15.80;33.20;;;;;;6227854;28;20044;-83
2022/03/05 09:08:20;;;;;;;22.50;9.70;;;16.30;31.70;;;;;;6252738;28;20045;-82
2022/03/05 09:11:23;;;;;;;14.32;6.97;;;16.30;31.40;;;;;;6255200;28;20049;-83
2022/03/05 09:14:25;;;;;;;17.38;7.80;;;16.40;31.10;;;;;;6234164;28;20054;-83
2022/03/05 09:17:27;;;;;;;17.48;8.32;;;16.20;31.70;;;;;;6231182;28;20072;-83
2022/03/05 09:20:29;;;;;;;19.25;8.98;;;16.30;31.30;;;;;;6229926;28;20132;-83
2022/03/05 09:23:30;;;;;;;10.73;6.68;;;16.20;31.20;;;;;;6229823;28;20108;-83
2022/03/05 09:26:33;;;;;;;14.10;7.05;;;16.00;31.20;;;;;;6230293;28;20113;-84
2022/03/05 09:29:35;;;;;;;12.93;6.95;;;15.70;31.30;;;;;;6229980;28;20407;-83
2022/03/05 09:32:37;;;;;;;13.43;6.78;;;15.60;32.00;;;;;;6229948;28;20173;-82
2022/03/05 09:35:39;;;;;;;15.80;7.45;;;15.60;31.50;;;;;;6224654;28;20113;-83
2022/03/05 09:38:41;;;;;;;11.77;5.65;;;15.20;31.50;;;;;;6230757;28;20454;-83
2022/03/05 09:41:44;;;;;;;11.30;6.45;;;14.30;32.00;;;;;;6231116;28;20061;-83
2022/03/05 09:44:46;;;;;;;15.43;7.93;;;13.60;34.10;;;;;;6229983;28;20151;-82
2022/03/05 09:47:48;;;;;;;17.08;7.45;;;13.50;34.30;;;;;;6231013;28;20046;-85
2022/03/05 09:50:50;;;;;;;13.32;7.00;;;13.50;34.90;;;;;;6232047;28;20100;-83
2022/03/05 09:53:53;;;;;;;13.15;4.78;;;12.90;35.20;;;;;;6230420;28;20058;-81
2022/03/05 09:56:56;;;;;;;17.88;7.60;;;12.70;36.00;;;;;;6229035;28;20061;-83
2022/03/05 09:59:58;;;;;;;13.57;7.38;;;12.30;35.80;;;;;;6230686;28;20112;-82
2022/03/05 10:03:00;;;;;;;14.63;6.72;;;12.20;36.90;;;;;;6230297;28;20042;-81
2022/03/05 10:06:15;;;;;;;12.77;6.05;;;12.20;36.70;;;;;;6248460;28;20054;-82
2022/03/05 10:09:21;;;;;;;16.58;8.43;;;12.20;36.50;;;;;;6254436;28;20057;-81
2022/03/05 10:12:32;;;;;;;13.30;6.00;;;12.00;37.10;;;;;;6254927;28;20049;-82
2022/03/05 10:15:37;;;;;;;13.93;6.88;;;12.30;36.70;;;;;;6253740;28;20053;-81
2022/03/05 10:18:40;;;;;;;13.65;6.15;;;12.30;36.00;;;;;;6254658;28;20125;-82
2022/03/05 10:21:56;;;;;;;10.32;5.38;;;12.00;36.10;;;;;;6254447;28;20503;-82
2022/03/05 10:24:59;;;;;;;10.93;6.30;;;12.10;36.20;;;;;;6252184;28;20080;-81
2022/03/05 10:28:04;;;;;;;10.63;5.40;;;12.00;36.30;;;;;;6251587;28;20052;-82
2022/03/05 10:31:08;;;;;;;11.10;5.07;;;12.00;36.10;;;;;;6256559;28;20572;-82
2022/03/05 10:34:10;;;;;;;14.77;5.30;;;12.10;34.60;;;;;;6253651;28;20050;-83
2022/03/05 10:37:12;;;;;;;12.48;5.25;;;12.10;35.00;;;;;;6256693;28;20049;-83
2022/03/05 10:40:14;;;;;;;10.82;5.28;;;12.20;34.40;;;;;;6257421;28;20148;-84
2022/03/05 10:43:18;;;;;;;10.82;4.63;;;12.50;34.60;;;;;;6259359;28;20067;-83
2022/03/05 10:46:20;;;;;;;9.57;4.10;;;12.30;33.20;;;;;;6257099;28;20523;-83
2022/03/05 10:49:23;;;;;;;14.65;6.50;;;12.00;32.40;;;;;;6264204;28;20128;-83
2022/03/05 10:52:25;;;;;;;9.25;5.40;;;11.90;33.30;;;;;;6260681;28;20574;-83
2022/03/05 10:55:28;;;;;;;10.82;5.72;;;11.80;33.40;;;;;;6257044;28;20578;-82
2022/03/05 10:58:31;;;;;;;8.25;4.97;;;12.00;34.30;;;;;;6258990;28;20049;-83
2022/03/05 11:01:36;;;;;;;14.45;4.68;;;12.00;33.50;;;;;;6259689;28;20046;-82
2022/03/05 11:04:42;;;;;;;8.73;4.28;;;11.70;33.50;;;;;;6256300;28;20069;-84
2022/03/05 11:07:45;;;;;;;10.30;4.65;;;11.90;33.80;;;;;;6259427;28;20064;-82
2022/03/05 11:10:49;;;;;;;8.95;4.75;;;12.00;33.70;;;;;;6259596;28;20051;-82
2022/03/05 11:13:52;;;;;;;10.35;4.50;;;12.10;33.20;;;;;;6238573;28;20050;-82
2022/03/05 11:16:55;;;;;;;9.02;4.13;;;12.50;33.70;;;;;;6234169;28;20065;-83
2022/03/05 11:19:57;;;;;;;7.35;4.18;;;12.70;32.40;;;;;;6232796;28;20109;-85
2022/03/05 11:23:02;;;;;;;5.88;3.28;;;12.70;33.00;;;;;;6232634;28;20125;-82
2022/03/05 11:26:07;;;;;;;7.18;3.50;;;12.70;31.10;;;;;;6232685;28;20056;-83
2022/03/05 11:29:10;;;;;;;8.43;3.50;;;12.60;31.40;;;;;;6233462;28;20072;-84
2022/03/05 11:32:13;;;;;;;7.72;2.67;;;12.50;30.30;;;;;;6244169;28;20109;-85
2022/03/05 11:35:20;;;;;;;6.80;3.15;;;12.10;30.50;;;;;;6253172;28;20103;-83
2022/03/05 11:38:33;;;;;;;8.30;3.60;;;12.10;31.90;;;;;;6226486;28;20067;-81
2022/03/05 11:41:48;;;;;;;7.93;4.05;;;12.20;31.50;;;;;;6231756;28;20090;-82
2022/03/05 11:44:51;;;;;;;20.63;4.07;;;12.30;31.90;;;;;;6221992;28;20038;-83
2022/03/05 11:47:55;;;;;;;8.15;3.97;;;12.50;31.50;;;;;;6217376;28;20064;-83
2022/03/05 11:50:58;;;;;;;7.32;3.55;;;12.50;32.00;;;;;;6217581;28;20133;-84
2022/03/05 11:54:05;;;;;;;8.32;4.07;;;12.80;30.90;;;;;;6217990;28;20046;-83
2022/03/05 11:57:13;;;;;;;10.45;4.50;;;12.50;30.90;;;;;;6210514;28;20050;-82
2022/03/05 12:00:19;;;;;;;8.45;4.10;;;12.30;32.00;;;;;;6213369;28;20042;-84
2022/03/05 12:03:38;;;;;;;8.25;4.40;;;12.40;32.50;;;;;;6219432;28;20054;-81
2022/03/05 12:06:44;;;;;;;8.10;3.90;;;12.50;32.40;;;;;;6247342;28;20046;-83
2022/03/05 12:09:56;;;;;;;8.15;4.55;;;12.60;31.60;;;;;;6225772;28;20049;-83
2022/03/05 12:13:01;;;;;;;8.95;4.63;;;12.20;31.80;;;;;;6208218;28;20054;-84
2022/03/05 12:16:26;;;;;;;;;;;;;;;;;;;;;
2022/03/05 12:19:31;;;;;;;9.05;4.82;;;12.00;32.10;;;;;;6209463;28;20058;-83
2022/03/05 12:22:34;;;;;;;8.55;3.83;;;11.80;32.90;;;;;;6201339;28;20114;-83
2022/03/05 12:25:40;;;;;;;8.50;3.92;;;12.00;32.50;;;;;;6210058;28;20062;-84
2022/03/05 12:28:44;;;;;;;8.88;3.55;;;12.20;32.40;;;;;;6209426;28;20508;-84
2022/03/05 12:31:48;;;;;;;8.77;4.05;;;12.50;32.10;;;;;;6210188;28;20046;-83
2022/03/05 12:34:49;;;;;;;10.43;4.18;;;12.70;31.40;;;;;;6228035;28;20048;-83
2022/03/05 12:37:52;;;;;;;8.48;3.80;;;12.70;31.30;;;;;;6243903;28;20077;-86
2022/03/05 12:40:58;;;;;;;9.98;5.18;;;12.30;31.60;;;;;;6235090;28;20046;-81
2022/03/05 12:44:07;;;;;;;10.07;4.13;;;12.60;32.00;;;;;;6237474;28;20050;-84
2022/03/05 12:47:11;;;;;;;7.80;4.38;;;13.00;32.50;;;;;;6221316;28;20054;-83
2022/03/05 12:50:25;;;;;;;8.75;3.47;;;13.00;30.00;;;;;;6232335;28;20124;-85
2022/03/05 12:53:29;;;;;;;8.85;4.32;;;12.80;31.10;;;;;;6233674;28;20182;-84
2022/03/05 12:56:31;;;;;;;9.70;3.92;;;12.70;32.20;;;;;;6213842;28;20042;-84
2022/03/05 12:59:33;;;;;;;9.13;4.60;;;13.10;31.40;;;;;;6233531;28;20062;-84
2022/03/05 13:02:39;;;;;;;9.35;4.85;;;13.20;31.30;;;;;;6235207;28;20484;-85
2022/03/05 13:05:47;;;;;;;9.73;4.47;;;13.20;30.80;;;;;;6247970;28;20041;-83
2022/03/05 13:08:49;;;;;;;;;;;13.10;30.30;;;;;;6240416;28;20042;-85
2022/03/05 13:11:50;;;;;;;6.82;3.85;;;13.00;31.10;;;;;;6232177;28;19928;-85
2022/03/05 13:14:52;;;;;;;9.77;4.75;;;12.90;30.90;;;;;;6231501;28;20049;-85
2022/03/05 13:18:15;;;;;;;10.27;4.68;;;13.00;31.60;;;;;;6241335;28;20042;-84
2022/03/05 13:21:17;;;;;;;9.25;4.63;;;13.20;31.30;;;;;;6239706;28;20052;-85
2022/03/05 13:24:22;;;;;;;11.60;4.55;;;13.00;30.70;;;;;;6240717;28;20109;-83
2022/03/05 13:27:25;;;;;;;8.13;4.30;;;12.90;30.70;;;;;;6242529;28;20053;-82
2022/03/05 13:30:28;;;;;;;9.35;4.80;;;13.00;31.40;;;;;;6240342;28;20050;-85
2022/03/05 13:33:47;;;;;;;10.80;4.57;;;13.30;30.60;;;;;;6233826;28;20084;-82
2022/03/05 13:36:49;;;;;;;7.50;3.65;;;13.50;30.70;;;;;;6246927;28;20053;-83
2022/03/05 13:39:53;;;;;;;7.47;3.83;;;13.40;29.90;;;;;;6229773;28;20038;-84
2022/03/05 13:42:59;;;;;;;9.10;4.22;;;13.30;29.80;;;;;;6230933;28;20046;-83
2022/03/05 13:46:00;;;;;;;13.68;3.85;;;13.10;30.60;;;;;;6230711;28;20125;-84
2022/03/05 13:49:09;;;;;;;8.40;4.57;;;13.20;30.50;;;;;;6230961;28;20052;-85
2022/03/05 13:52:18;;;;;;;8.13;3.97;;;13.40;30.00;;;;;;6229458;28;20045;-84
2022/03/05 13:55:20;;;;;;;9.05;4.85;;;13.30;30.00;;;;;;6229602;28;20060;-81
2022/03/05 14:02:45;;;;;;;8.38;4.45;;;12.90;30.00;;;;;;6224811;28;20142;-85
2022/03/05 14:05:52;;;;;;;6.60;3.80;;;12.50;30.70;;;;;;6222318;28;20037;-85
2022/03/05 14:08:53;;;;;;;8.30;4.28;;;12.40;30.80;;;;;;6260046;28;20128;-83
2022/03/05 14:12:18;;;;;;;6.72;3.78;;;12.60;30.90;;;;;;6261416;28;20128;-86
2022/03/05 14:15:24;;;;;;;9.85;4.55;;;12.70;30.60;;;;;;6252655;28;20049;-83
2022/03/05 14:18:26;;;;;;;9.82;4.95;;;12.80;30.50;;;;;;6257393;28;20060;-83
2022/03/05 14:21:29;;;;;;;8.05;3.72;;;12.80;30.90;;;;;;6259097;28;20077;-85
2022/03/05 14:24:31;;;;;;;5.63;3.58;;;13.20;31.60;;;;;;6259348;28;20144;-85
2022/03/05 14:27:33;;;;;;;11.05;5.55;;;13.30;29.80;;;;;;6260341;28;20052;-85
2022/03/05 14:30:46;;;;;;;6.22;3.22;;;12.90;29.80;;;;;;6260968;28;20056;-84
2022/03/05 14:41:08;;;;;;;8.70;4.32;;;12.20;30.40;;;;;;6185813;28;20041;-84
2022/03/05 14:44:19;;;;;;;7.20;3.53;;;12.20;31.60;;;;;;6236233;28;20046;-84
2022/03/05 14:51:12;;;;;;;6.82;4.07;;;12.70;30.80;;;;;;6211711;28;20057;-84
2022/03/05 14:57:52;;;;;;;8.75;4.43;;;13.10;30.70;;;;;;6205823;28;20056;-84
2022/03/05 15:00:55;;;;;;;10.07;4.57;;;13.10;30.90;;;;;;6230775;28;20050;-84
2022/03/05 15:03:57;;;;;;;7.20;3.97;;;13.40;30.80;;;;;;6223866;28;20046;-84
2022/03/05 15:07:05;;;;;;;7.43;4.13;;;13.50;30.30;;;;;;6241345;28;20049;-85
2022/03/05 15:10:11;;;;;;;7.95;4.28;;;13.40;30.90;;;;;;6207240;28;20054;-84
2022/03/05 15:13:18;;;;;;;6.55;3.58;;;13.30;31.00;;;;;;6196434;28;20137;-85
2022/03/05 15:16:25;;;;;;;6.32;3.63;;;13.40;31.20;;;;;;6196019;28;20057;-85
2022/03/05 15:19:27;;;;;;;8.35;4.57;;;13.70;30.40;;;;;;6208458;28;20042;-85
2022/03/05 15:22:29;;;;;;;9.23;4.20;;;13.70;30.00;;;;;;6207251;28;20050;-84
2022/03/05 15:25:31;;;;;;;6.40;3.50;;;13.40;29.90;;;;;;6209535;28;20062;-85
2022/03/05 15:28:42;;;;;;;5.47;2.65;;;13.10;30.10;;;;;;6207918;28;20054;-84
2022/03/05 15:31:44;;;;;;;7.22;3.78;;;12.90;30.20;;;;;;6207805;28;20050;-85
2022/03/05 15:34:46;;;;;;;5.82;2.97;;;12.50;30.70;;;;;;6226225;28;20113;-85
2022/03/05 15:37:52;;;;;;;5.65;3.55;;;12.30;31.40;;;;;;6255941;28;20061;-84
2022/03/05 15:40:54;;;;;;;11.23;4.10;;;11.90;31.40;;;;;;6241489;28;20045;-84
2022/03/05 15:43:57;;;;;;;5.90;3.10;;;11.50;32.10;;;;;;6232029;28;20050;-83
2022/03/05 15:46:59;;;;;;;5.63;3.05;;;11.20;32.50;;;;;;6232135;28;20519;-82
2022/03/05 15:50:01;;;;;;;7.95;3.50;;;11.10;32.60;;;;;;6232701;28;20061;-85
2022/03/05 15:53:03;;;;;;;9.82;3.58;;;10.70;33.10;;;;;;6232418;28;20070;-83
2022/03/05 15:56:06;;;;;;;8.05;4.05;;;10.50;33.80;;;;;;6232166;28;20526;-84
2022/03/05 15:59:09;;;;;;;7.95;4.10;;;10.20;34.00;;;;;;6231014;28;20543;-83
2022/03/05 16:02:11;;;;;;;6.13;2.95;;;10.00;34.30;;;;;;6232968;28;20054;-83
2022/03/05 16:05:13;;;;;;;6.40;3.75;;;9.80;34.70;;;;;;6238074;28;20053;-83
2022/03/05 16:08:15;;;;;;;7.65;3.00;;;9.60;34.80;;;;;;6236764;28;20578;-84
2022/03/05 16:11:17;;;;;;;9.07;3.35;;;9.50;35.20;;;;;;6255011;28;20069;-84
2022/03/05 16:14:21;;;;;;;7.25;3.45;;;9.40;35.60;;;;;;6256915;28;20049;-84